In Rescue
 
Open Full Screen Window  High Contrast Mode
Wind Gusting 00 knots
17
November 29, 2022 8:05 AM CST
Present Weather: Light Snow
Weather Information
Wind Direction
  340 °
Wind Speed
  17 kt (20 mph)
Wind Gust
  00 kt (0 mph)
Altimeter
29.67 in
Visibility
3/4 SM
Temperature
-05° C
23° F
Dewpoint
-06° C
21° F
Humidity
93%
1hr Rain Fall
00.01 in.
24hr Rain Fall
00.05 in.
Sky Condition
Overcast @ 400 ft
LIFR

METAR KMWM 291405Z AUTO 34017KT 3/4SM -SN OVC004 M05/M06 A2967 RMK AO2 P0001

FAA Disclaimer: The data displayed is for advisory purposes only and is not to be used for flight planning or operations.